createdAt,value
2019-04-03T00:02:15.114Z,8.06
2019-04-03T00:04:47.688Z,8.01
2019-04-03T00:07:20.268Z,7.97
2019-04-03T00:09:52.631Z,7.92
2019-04-03T00:12:25.163Z,7.83
2019-04-03T00:14:57.414Z,7.76
2019-04-03T00:17:29.834Z,7.74
2019-04-03T00:20:05.242Z,7.74
2019-04-03T00:22:37.501Z,7.74
2019-04-03T00:25:09.745Z,7.72
2019-04-03T00:27:42.040Z,7.67
2019-04-03T00:30:14.453Z,7.61
2019-04-03T00:32:46.899Z,7.56
2019-04-03T00:35:19.258Z,7.45
2019-04-03T00:37:53.746Z,7.36
2019-04-03T00:40:25.613Z,7.32
2019-04-03T00:42:58.156Z,7.33
2019-04-03T00:45:30.462Z,7.42
2019-04-03T00:48:02.929Z,7.47
2019-04-03T00:50:35.350Z,7.44
2019-04-03T00:53:07.607Z,7.43
2019-04-03T00:55:39.854Z,7.36
2019-04-03T00:58:12.073Z,7.19
2019-04-03T01:00:44.292Z,7.01
2019-04-03T01:03:16.526Z,6.83
2019-04-03T01:05:49.030Z,6.70
2019-04-03T01:08:21.362Z,6.58
2019-04-03T01:10:54.748Z,6.45
2019-04-03T01:13:27.150Z,6.32
2019-04-03T01:16:02.128Z,6.24
2019-04-03T01:18:35.274Z,6.17
2019-04-03T01:21:07.630Z,6.09
2019-04-03T01:23:41.483Z,6.02
2019-04-03T01:26:13.841Z,5.96
2019-04-03T01:28:45.892Z,5.90
2019-04-03T01:31:18.325Z,5.81
2019-04-03T01:33:50.595Z,5.74
2019-04-03T01:36:22.822Z,5.69
2019-04-03T01:38:57.506Z,5.65
2019-04-03T01:41:29.875Z,5.64
2019-04-03T01:44:02.098Z,5.62
2019-04-03T01:46:34.540Z,5.57
2019-04-03T01:49:07.071Z,5.54
2019-04-03T01:51:39.440Z,5.47
2019-04-03T01:54:11.597Z,5.44
2019-04-03T01:56:43.885Z,5.45
2019-04-03T01:59:16.181Z,5.45
2019-04-03T02:01:48.596Z,5.48
2019-04-03T02:04:22.470Z,5.46
2019-04-03T02:06:54.901Z,5.44
2019-04-03T02:09:27.345Z,5.41
2019-04-03T02:11:59.745Z,5.42
2019-04-03T02:14:35.271Z,5.42
2019-04-03T02:17:07.659Z,5.42
2019-04-03T02:19:39.806Z,5.43
2019-04-03T02:22:12.214Z,5.42
2019-04-03T02:24:44.580Z,5.39
2019-04-03T02:27:16.821Z,5.39
2019-04-03T02:29:49.059Z,5.36
2019-04-03T02:32:23.817Z,5.33
2019-04-03T02:34:55.392Z,5.31
2019-04-03T02:37:27.680Z,5.28
2019-04-03T02:40:00.560Z,5.29
2019-04-03T02:42:33.162Z,5.33
2019-04-03T02:45:07.020Z,5.34
2019-04-03T02:47:39.302Z,5.37
2019-04-03T02:50:13.902Z,5.40
2019-04-03T02:52:45.359Z,5.46
2019-04-03T02:55:17.770Z,5.48
2019-04-03T02:57:50.380Z,5.54
2019-04-03T03:00:22.795Z,5.55
2019-04-03T03:02:55.143Z,5.58
2019-04-03T03:05:28.799Z,5.60
2019-04-03T03:08:01.646Z,5.57
2019-04-03T03:10:33.887Z,5.56
2019-04-03T03:13:06.159Z,5.55
2019-04-03T03:15:38.370Z,5.52
2019-04-03T03:18:10.654Z,5.54
2019-04-03T03:20:42.968Z,5.56
2019-04-03T03:23:15.274Z,5.54
2019-04-03T03:25:47.877Z,5.53
2019-04-03T03:28:20.450Z,5.51
2019-04-03T03:31:00.922Z,5.50
2019-04-03T03:33:35.558Z,5.51
2019-04-03T03:36:01.192Z,5.57
2019-04-03T03:38:33.945Z,5.56
2019-04-03T03:41:06.213Z,5.57
2019-04-03T03:43:39.074Z,5.60
2019-04-03T03:46:11.481Z,5.62
2019-04-03T03:48:45.039Z,5.64
2019-04-03T03:51:17.707Z,5.66
2019-04-03T03:53:49.963Z,5.68
2019-04-03T03:56:22.271Z,5.69
2019-04-03T03:58:54.526Z,5.69
2019-04-03T04:01:30.196Z,5.67
2019-04-03T04:04:01.077Z,5.69
2019-04-03T04:06:36.261Z,5.70
2019-04-03T04:09:08.380Z,5.74
2019-04-03T04:11:41.083Z,5.78
2019-04-03T04:14:13.395Z,5.77
2019-04-03T04:16:45.687Z,5.81
2019-04-03T04:19:17.970Z,5.84
2019-04-03T04:21:50.487Z,5.83
2019-04-03T04:24:22.879Z,5.84
2019-04-03T04:26:55.253Z,5.85
2019-04-03T04:29:27.885Z,5.87
2019-04-03T04:32:00.541Z,5.90
2019-04-03T04:34:32.787Z,5.91
2019-04-03T04:37:05.093Z,5.93
2019-04-03T04:39:37.462Z,5.93
2019-04-03T04:42:09.743Z,5.91
2019-04-03T04:44:41.838Z,5.87
2019-04-03T04:47:15.291Z,5.82
2019-04-03T04:49:47.986Z,5.78
2019-04-03T04:52:20.505Z,5.75
2019-04-03T04:54:52.761Z,5.70
2019-04-03T04:57:25.168Z,5.68
2019-04-03T04:59:57.526Z,5.67
2019-04-03T05:02:30.192Z,5.64
2019-04-03T05:05:02.522Z,5.61
2019-04-03T05:07:34.815Z,5.54
2019-04-03T05:10:07.126Z,5.51
2019-04-03T05:12:44.186Z,5.50
2019-04-03T05:15:13.371Z,5.44
2019-04-03T05:17:45.565Z,5.44
2019-04-03T05:20:20.199Z,5.46
2019-04-03T05:22:54.542Z,5.48
2019-04-03T05:25:27.875Z,5.51
2019-04-03T05:28:01.074Z,5.52
2019-04-03T05:30:33.498Z,5.53
2019-04-03T05:33:07.484Z,5.56
2019-04-03T05:35:41.069Z,5.56
2019-04-03T05:38:13.443Z,5.61
2019-04-03T05:40:45.566Z,5.66
2019-04-03T05:43:18.077Z,5.73
2019-04-03T05:45:51.475Z,5.77
2019-04-03T05:48:23.764Z,5.79
2019-04-03T05:50:58.165Z,5.84
2019-04-03T05:53:30.132Z,5.87
2019-04-03T05:56:02.348Z,5.92
2019-04-03T05:58:34.670Z,6.00
2019-04-03T06:01:08.783Z,6.09
2019-04-03T06:03:44.829Z,6.14
2019-04-03T06:06:15.588Z,6.18
2019-04-03T06:08:50.631Z,6.20
2019-04-03T06:11:22.219Z,6.23
2019-04-03T06:13:54.593Z,6.27
2019-04-03T06:16:26.836Z,6.27
2019-04-03T06:18:59.748Z,6.26
2019-04-03T06:21:32.287Z,6.25
2019-04-03T06:24:04.543Z,6.28
2019-04-03T06:26:37.790Z,6.38
2019-04-03T06:29:10.947Z,6.48
2019-04-03T06:31:43.271Z,6.57
2019-04-03T06:34:15.623Z,6.64
2019-04-03T06:36:49.664Z,6.65
2019-04-03T06:39:23.472Z,6.69
2019-04-03T06:41:55.916Z,6.71
2019-04-03T06:44:28.337Z,6.70
2019-04-03T06:47:01.498Z,6.68
2019-04-03T06:49:34.226Z,6.66
2019-04-03T06:52:06.845Z,6.66
2019-04-03T06:54:39.108Z,6.68
2019-04-03T06:57:11.807Z,6.74
2019-04-03T06:59:47.897Z,6.86
2019-04-03T07:02:19.958Z,6.99
2019-04-03T07:04:52.664Z,7.11
2019-04-03T07:07:32.972Z,7.18
2019-04-03T07:09:58.776Z,7.20
2019-04-03T07:12:32.161Z,7.32
2019-04-03T07:15:04.550Z,7.45
2019-04-03T07:17:37.141Z,7.59
2019-04-03T07:20:14.483Z,7.78
2019-04-03T07:22:43.477Z,7.96
2019-04-03T07:25:16.451Z,8.10
2019-04-03T07:27:48.980Z,8.22
2019-04-03T07:30:21.782Z,8.28
2019-04-03T07:32:57.152Z,8.36
2019-04-03T07:35:28.719Z,8.43
2019-04-03T07:38:01.180Z,8.51
2019-04-03T07:40:33.461Z,8.63
2019-04-03T07:43:06.091Z,8.81
2019-04-03T07:45:38.585Z,9.07
2019-04-03T07:48:10.905Z,9.28
2019-04-03T07:50:44.929Z,9.36
2019-04-03T07:53:19.283Z,9.39
2019-04-03T07:55:51.608Z,9.49
2019-04-03T07:58:25.391Z,9.58
2019-04-03T08:00:58.096Z,9.67
2019-04-03T08:03:30.422Z,9.77
2019-04-03T08:06:03.538Z,9.83
2019-04-03T08:08:37.120Z,9.87
2019-04-03T08:11:09.565Z,9.85
2019-04-03T08:13:42.234Z,9.66
2019-04-03T08:16:15.808Z,9.38
2019-04-03T08:18:49.934Z,9.21
2019-04-03T08:21:23.151Z,9.21
2019-04-03T08:23:55.510Z,9.28
2019-04-03T08:26:27.968Z,9.43
2019-04-03T08:29:01.820Z,9.60
2019-04-03T08:31:34.770Z,9.78
2019-04-03T08:34:15.489Z,9.77
2019-04-03T08:36:41.114Z,9.88
2019-04-03T08:39:13.704Z,10.18
2019-04-03T08:41:47.564Z,10.60
2019-04-03T08:44:20.265Z,10.96
2019-04-03T08:46:52.946Z,11.25
2019-04-03T08:49:26.330Z,11.47
2019-04-03T08:51:59.271Z,11.69
2019-04-03T08:54:31.964Z,11.67
2019-04-03T08:57:04.904Z,11.53
2019-04-03T08:59:37.208Z,11.26
2019-04-03T09:02:12.771Z,10.89
2019-04-03T09:04:43.791Z,10.69
2019-04-03T09:07:16.183Z,10.56
2019-04-03T09:09:50.387Z,10.44
2019-04-03T09:12:22.730Z,10.16
2019-04-03T09:14:57.053Z,9.99
2019-04-03T09:17:29.064Z,10.04
2019-04-03T09:20:02.460Z,10.26
2019-04-03T09:22:34.806Z,10.23
2019-04-03T09:25:07.098Z,10.24
2019-04-03T09:27:40.712Z,10.45
2019-04-03T09:30:15.447Z,10.50
2019-04-03T09:32:47.164Z,10.35
2019-04-03T09:35:19.815Z,10.15
2019-04-03T09:37:52.462Z,10.10
2019-04-03T09:40:24.877Z,10.22
2019-04-03T09:42:57.204Z,10.64
2019-04-03T09:45:29.544Z,11.16
2019-04-03T09:48:04.588Z,11.49
2019-04-03T09:50:36.071Z,11.60
2019-04-03T09:53:08.681Z,11.45
2019-04-03T09:55:40.936Z,11.31
2019-04-03T09:58:13.270Z,11.41
2019-04-03T10:00:45.626Z,11.86
2019-04-03T10:03:18.177Z,11.96
2019-04-03T10:05:50.831Z,12.20
2019-04-03T10:08:23.210Z,12.29
2019-04-03T10:10:55.886Z,12.41
2019-04-03T10:13:28.128Z,12.67
2019-04-03T10:16:03.258Z,12.68
2019-04-03T10:18:39.091Z,12.74
2019-04-03T10:21:12.518Z,12.68
2019-04-03T10:23:44.848Z,12.36
2019-04-03T10:26:17.087Z,12.29
2019-04-03T10:28:49.354Z,12.29
2019-04-03T10:31:23.795Z,12.49
2019-04-03T10:33:55.608Z,12.68
2019-04-03T10:36:28.891Z,12.64
2019-04-03T10:39:01.221Z,12.92
2019-04-03T10:41:34.767Z,12.90
2019-04-03T10:44:09.295Z,12.85
2019-04-03T10:46:41.167Z,12.67
2019-04-03T10:49:13.752Z,12.60
2019-04-03T10:51:46.092Z,12.64
2019-04-03T10:54:18.382Z,12.62
2019-04-03T10:56:51.041Z,12.68
2019-04-03T10:59:23.709Z,12.84
2019-04-03T11:01:56.099Z,13.20
2019-04-03T11:04:28.815Z,13.64
2019-04-03T11:07:01.202Z,13.87
2019-04-03T11:09:33.420Z,13.91
2019-04-03T11:12:06.221Z,14.02
2019-04-03T11:14:40.146Z,14.08
2019-04-03T11:17:13.050Z,14.10
2019-04-03T11:19:45.648Z,14.15
2019-04-03T11:22:18.089Z,13.92
2019-04-03T11:24:50.846Z,13.88
2019-04-03T11:27:29.063Z,13.93
2019-04-03T11:29:57.234Z,14.49
2019-04-03T11:32:29.686Z,14.69
2019-04-03T11:35:02.171Z,14.52
2019-04-03T11:37:35.094Z,14.29
2019-04-03T11:40:07.874Z,13.92
2019-04-03T11:42:40.265Z,13.55
2019-04-03T11:45:12.653Z,13.28
2019-04-03T11:47:46.186Z,13.01
2019-04-03T11:50:18.634Z,12.76
2019-04-03T11:52:52.168Z,12.69
2019-04-03T11:55:24.578Z,12.72
2019-04-03T11:57:57.037Z,12.87
2019-04-03T12:00:29.348Z,12.96
2019-04-03T12:03:01.652Z,13.21
2019-04-03T12:05:33.924Z,14.91
2019-04-03T12:08:07.469Z,16.58
2019-04-03T12:10:40.041Z,17.91
2019-04-03T12:13:14.241Z,19.41
2019-04-03T12:15:48.019Z,18.60
2019-04-03T12:18:20.708Z,17.19
2019-04-03T12:20:53.522Z,15.92
2019-04-03T12:23:26.838Z,14.63
2019-04-03T12:26:01.671Z,13.34
2019-04-03T12:28:34.118Z,11.78
2019-04-03T12:31:06.389Z,10.70
2019-04-03T12:33:46.659Z,9.76
2019-04-03T12:36:15.941Z,8.98
2019-04-03T12:38:48.017Z,8.33
2019-04-03T12:41:20.297Z,7.62
2019-04-03T12:43:53.487Z,7.12
2019-04-03T12:46:25.798Z,6.93
2019-04-03T12:48:58.086Z,6.93
2019-04-03T12:51:31.534Z,6.99
2019-04-03T12:54:04.346Z,7.09
2019-04-03T12:56:37.015Z,7.17
2019-04-03T12:59:09.672Z,7.36
2019-04-03T13:01:43.433Z,7.54
2019-04-03T13:04:15.680Z,8.07
2019-04-03T13:06:47.919Z,11.40
2019-04-03T13:09:20.701Z,14.96
2019-04-03T13:11:53.330Z,16.45
2019-04-03T13:14:27.199Z,15.12
2019-04-03T13:16:59.575Z,16.18
2019-04-03T13:19:33.464Z,16.48
2019-04-03T13:22:05.993Z,17.71
2019-04-03T13:24:38.356Z,20.24
2019-04-03T13:27:10.501Z,21.31
2019-04-03T13:29:42.876Z,22.39
2019-04-03T13:32:17.280Z,23.20
2019-04-03T13:34:50.405Z,23.20
2019-04-03T13:37:23.892Z,23.70
2019-04-03T13:40:00.205Z,24.67
2019-04-03T13:42:31.899Z,24.01
2019-04-03T13:45:04.888Z,23.08
2019-04-03T13:47:39.878Z,21.26
2019-04-03T13:50:11.683Z,19.89
2019-04-03T13:52:48.432Z,18.41
2019-04-03T13:55:18.040Z,17.10
2019-04-03T13:57:51.376Z,16.08
2019-04-03T14:00:24.866Z,15.36
2019-04-03T14:02:58.246Z,14.87
2019-04-03T14:05:32.955Z,14.45
2019-04-03T14:08:07.122Z,14.17
2019-04-03T14:10:40.001Z,14.61
2019-04-03T14:13:12.983Z,16.45
2019-04-03T14:15:45.685Z,18.55
2019-04-03T14:18:18.029Z,18.42
2019-04-03T14:20:51.965Z,17.92
2019-04-03T14:23:24.795Z,17.65
2019-04-03T14:26:04.063Z,18.20
2019-04-03T14:28:35.436Z,18.96
2019-04-03T14:31:08.538Z,19.31
2019-04-03T14:33:45.127Z,19.13
2019-04-03T14:36:18.362Z,19.25
2019-04-03T14:38:49.112Z,19.62
2019-04-03T14:41:21.376Z,20.13
2019-04-03T14:43:54.199Z,21.62
2019-04-03T14:46:26.961Z,22.27
2019-04-03T14:49:02.572Z,23.14
2019-04-03T14:51:33.727Z,24.18
2019-04-03T14:54:08.424Z,24.61
2019-04-03T14:56:40.451Z,23.74
2019-04-03T14:59:14.055Z,22.01
2019-04-03T15:01:46.769Z,20.56
2019-04-03T15:04:19.001Z,19.28
2019-04-03T15:07:01.656Z,19.21
2019-04-03T15:09:26.990Z,19.44
2019-04-03T15:11:59.517Z,19.35
2019-04-03T15:14:31.914Z,18.81
2019-04-03T15:17:05.238Z,18.22
2019-04-03T15:19:38.443Z,18.10
2019-04-03T15:22:11.129Z,17.80
2019-04-03T15:24:44.465Z,17.24
2019-04-03T15:27:17.032Z,16.63
2019-04-03T15:29:50.078Z,16.13
2019-04-03T15:32:22.868Z,15.55
2019-04-03T15:34:58.700Z,14.91
2019-04-03T15:37:29.717Z,14.33
2019-04-03T15:40:02.328Z,14.01
2019-04-03T15:42:38.481Z,13.81
2019-04-03T15:45:09.329Z,13.70
2019-04-03T15:47:45.822Z,13.58
2019-04-03T15:50:17.114Z,13.38
2019-04-03T15:52:51.256Z,13.17
2019-04-03T15:55:25.114Z,12.96
2019-04-03T15:57:58.295Z,12.65
2019-04-03T16:00:30.627Z,12.03
2019-04-03T16:03:03.353Z,11.29
2019-04-03T16:05:37.137Z,10.73
2019-04-03T16:08:10.018Z,10.12
2019-04-03T16:10:44.180Z,9.27
2019-04-03T16:13:16.744Z,8.58
2019-04-03T16:15:48.967Z,8.25
2019-04-03T16:18:21.800Z,8.08
2019-04-03T16:20:54.133Z,8.06
2019-04-03T16:23:27.241Z,8.13
2019-04-03T16:26:00.312Z,8.36
2019-04-03T16:28:34.073Z,8.59
2019-04-03T16:31:09.235Z,8.77
2019-04-03T16:33:43.001Z,8.91
2019-04-03T16:36:25.083Z,9.19
2019-04-03T16:39:01.105Z,9.25
2019-04-03T16:41:37.667Z,9.38
2019-04-03T16:44:09.341Z,9.48
2019-04-03T16:46:42.142Z,10.25
2019-04-03T16:49:14.467Z,10.82
2019-04-03T16:51:46.840Z,11.04
2019-04-03T16:54:19.157Z,10.96
2019-04-03T16:56:51.831Z,10.75
2019-04-03T16:59:24.271Z,10.62
2019-04-03T17:01:56.886Z,10.55
2019-04-03T17:04:29.116Z,10.51
2019-04-03T17:07:01.808Z,10.57
2019-04-03T17:09:37.469Z,10.66
2019-04-03T17:12:09.022Z,10.60
2019-04-03T17:14:43.580Z,10.63
2019-04-03T17:17:19.688Z,10.64
2019-04-03T17:19:53.949Z,10.68
2019-04-03T17:22:29.871Z,10.63
2019-04-03T17:25:02.753Z,10.50
2019-04-03T17:27:35.111Z,10.42
2019-04-03T17:30:07.626Z,10.38
2019-04-03T17:32:40.079Z,10.33
2019-04-03T17:35:15.063Z,10.30
2019-04-03T17:37:48.728Z,10.20
2019-04-03T17:40:21.348Z,10.10
2019-04-03T17:42:53.700Z,9.98
2019-04-03T17:45:35.610Z,9.92
2019-04-03T17:48:11.019Z,9.91
2019-04-03T17:50:47.536Z,9.83
2019-04-03T17:53:21.039Z,9.72
2019-04-03T17:55:53.421Z,9.56
2019-04-03T17:58:25.778Z,9.33
2019-04-03T18:00:58.055Z,9.12
2019-04-03T18:03:30.535Z,8.93
2019-04-03T18:06:03.290Z,8.74
2019-04-03T18:08:35.860Z,8.53
2019-04-03T18:11:08.324Z,8.37
2019-04-03T18:13:40.629Z,8.27
2019-04-03T18:16:13.451Z,8.21
2019-04-03T18:18:45.880Z,8.19
2019-04-03T18:21:18.395Z,8.16
2019-04-03T18:23:52.873Z,8.13
2019-04-03T18:26:25.052Z,8.08
2019-04-03T18:28:57.085Z,8.00
2019-04-03T18:31:29.340Z,7.94
2019-04-03T18:34:01.656Z,7.90
2019-04-03T18:36:34.339Z,7.91
2019-04-03T18:39:07.854Z,7.89
2019-04-03T18:41:40.822Z,7.92
2019-04-03T18:44:22.056Z,7.96
2019-04-03T18:46:50.052Z,8.00
2019-04-03T18:49:21.788Z,7.98
2019-04-03T18:51:54.174Z,7.98
2019-04-03T18:54:26.691Z,7.96
2019-04-03T18:56:59.678Z,7.98
2019-04-03T18:59:32.084Z,7.99
2019-04-03T19:02:06.410Z,8.00
2019-04-03T19:04:38.775Z,8.03
2019-04-03T19:07:11.123Z,8.05
2019-04-03T19:09:43.341Z,8.06
2019-04-03T19:12:15.747Z,8.07
2019-04-03T19:14:48.069Z,8.09
2019-04-03T19:17:20.379Z,8.13
2019-04-03T19:19:55.656Z,8.19
2019-04-03T19:22:26.758Z,8.18
2019-04-03T19:24:59.358Z,8.19
2019-04-03T19:27:33.074Z,8.15
2019-04-03T19:30:07.649Z,8.13
2019-04-03T19:32:42.763Z,8.08
2019-04-03T19:35:14.350Z,8.02
2019-04-03T19:37:46.671Z,7.95
2019-04-03T19:40:18.942Z,7.88
2019-04-03T19:42:51.304Z,7.83
2019-04-03T19:45:23.762Z,7.78
2019-04-03T19:47:56.341Z,7.79
2019-04-03T19:50:31.465Z,7.85
2019-04-03T19:53:02.632Z,7.92
2019-04-03T19:55:35.305Z,7.94
2019-04-03T19:58:07.689Z,7.94
2019-04-03T20:00:40.010Z,7.87
2019-04-03T20:03:14.076Z,7.77
2019-04-03T20:05:50.081Z,7.70
2019-04-03T20:08:20.559Z,7.62
2019-04-03T20:10:53.180Z,7.56
2019-04-03T20:13:28.046Z,7.53
2019-04-03T20:15:59.939Z,7.47
2019-04-03T20:18:32.505Z,7.44
2019-04-03T20:21:04.756Z,7.41
2019-04-03T20:23:37.262Z,7.41
2019-04-03T20:26:09.577Z,7.47
2019-04-03T20:28:41.900Z,7.60
2019-04-03T20:31:14.104Z,7.70
2019-04-03T20:33:46.557Z,7.68
2019-04-03T20:36:20.361Z,7.62
2019-04-03T20:38:53.011Z,7.53
2019-04-03T20:41:25.359Z,7.47
2019-04-03T20:43:57.681Z,7.41
2019-04-03T20:46:30.005Z,7.41
2019-04-03T20:49:03.061Z,7.43
2019-04-03T20:51:35.665Z,7.45
2019-04-03T20:54:07.881Z,7.42
2019-04-03T20:56:40.133Z,7.34
2019-04-03T20:59:12.410Z,7.25
2019-04-03T21:01:44.714Z,7.20
2019-04-03T21:04:16.999Z,7.18
2019-04-03T21:06:51.580Z,7.16
2019-04-03T21:09:23.656Z,7.10
2019-04-03T21:11:55.919Z,7.02
2019-04-03T21:14:28.553Z,6.96
2019-04-03T21:17:00.994Z,6.88
2019-04-03T21:19:33.545Z,6.80
2019-04-03T21:22:05.787Z,6.78
2019-04-03T21:24:38.198Z,6.80
2019-04-03T21:27:10.563Z,6.80
2019-04-03T21:29:42.842Z,6.79
2019-04-03T21:32:15.297Z,6.78
2019-04-03T21:34:47.997Z,6.75
2019-04-03T21:37:20.579Z,6.73
2019-04-03T21:39:53.086Z,6.69
2019-04-03T21:42:26.878Z,6.63
2019-04-03T21:45:02.540Z,6.57
2019-04-03T21:47:34.893Z,6.50
2019-04-03T21:50:07.233Z,6.41
2019-04-03T21:52:39.608Z,6.33
2019-04-03T21:55:12.085Z,6.26
2019-04-03T21:57:44.302Z,6.21
2019-04-03T22:00:18.559Z,6.20
2019-04-03T22:02:52.430Z,6.20
2019-04-03T22:05:25.350Z,6.18
2019-04-03T22:07:58.255Z,6.15
2019-04-03T22:10:32.998Z,6.12
2019-04-03T22:13:05.889Z,6.07
2019-04-03T22:15:39.446Z,6.02
2019-04-03T22:18:11.651Z,5.95
2019-04-03T22:20:46.003Z,5.89
2019-04-03T22:23:18.835Z,5.86
2019-04-03T22:25:51.553Z,5.84
2019-04-03T22:28:23.835Z,5.82
2019-04-03T22:30:56.155Z,5.79
2019-04-03T22:33:28.322Z,5.76
2019-04-03T22:36:01.256Z,5.73
2019-04-03T22:38:37.114Z,5.73
2019-04-03T22:41:12.264Z,5.69
2019-04-03T22:43:44.165Z,5.63
2019-04-03T22:46:17.705Z,5.60
2019-04-03T22:48:50.238Z,5.54
2019-04-03T22:51:22.547Z,5.48
2019-04-03T22:53:54.972Z,5.47
2019-04-03T22:56:27.417Z,5.45
2019-04-03T22:58:59.833Z,5.43
2019-04-03T23:01:32.311Z,5.40
2019-04-03T23:04:05.345Z,5.39
2019-04-03T23:06:38.320Z,5.35
2019-04-03T23:09:10.758Z,5.32
2019-04-03T23:11:42.887Z,5.31
2019-04-03T23:14:15.111Z,5.28
2019-04-03T23:16:47.461Z,5.23
2019-04-03T23:19:19.737Z,5.20
2019-04-03T23:21:54.845Z,5.19
2019-04-03T23:24:28.891Z,5.17
2019-04-03T23:27:02.712Z,5.14
2019-04-03T23:29:36.683Z,5.11
2019-04-03T23:32:09.335Z,5.11
2019-04-03T23:34:41.563Z,5.11
2019-04-03T23:37:13.815Z,5.11
2019-04-03T23:39:46.085Z,5.10
2019-04-03T23:42:18.484Z,5.10
2019-04-03T23:44:50.902Z,5.08
2019-04-03T23:47:23.128Z,5.02
2019-04-03T23:49:55.376Z,4.96
2019-04-03T23:52:28.042Z,4.93
2019-04-03T23:55:04.537Z,4.91
2019-04-03T23:57:35.884Z,4.90
